createdAt,value
2018-02-17T00:56:22.741Z,39.93
2018-02-17T01:01:29.541Z,29.80
2018-02-17T01:22:35.070Z,34.60
2018-02-17T01:27:51.092Z,28.83
2018-02-17T01:33:01.397Z,27.70
2018-02-17T01:57:05.242Z,29.70
2018-02-17T03:09:04.225Z,34.00
2018-02-17T03:15:36.902Z,43.10
2018-02-17T03:26:16.059Z,37.70
2018-02-17T03:31:25.787Z,42.63
2018-02-17T03:47:59.925Z,40.27
2018-02-17T04:21:48.622Z,39.90
2018-02-17T04:56:50.800Z,46.37
2018-02-17T05:02:44.421Z,44.73
2018-02-17T05:16:42.520Z,45.63
2018-02-17T05:35:51.163Z,29.73
2018-02-17T05:48:09.969Z,32.33
2018-02-17T05:59:00.887Z,37.43
2018-02-17T06:15:48.508Z,25.33
2018-02-17T06:55:01.479Z,26.97
2018-02-17T07:05:58.486Z,34.63
2018-02-17T10:45:10.945Z,24.20
2018-02-17T10:50:18.497Z,26.47
2018-02-17T10:55:34.756Z,25.47
2018-02-17T11:01:15.445Z,26.03
2018-02-17T11:06:28.372Z,23.23
2018-02-17T11:11:36.667Z,21.83
2018-02-17T11:16:53.694Z,24.83
2018-02-17T11:22:05.088Z,26.80
2018-02-17T11:32:34.536Z,28.13
2018-02-17T11:43:01.421Z,20.20
2018-02-17T11:48:11.718Z,18.90
2018-02-17T11:53:24.897Z,27.13
2018-02-17T11:58:47.375Z,23.20
2018-02-17T12:03:56.548Z,27.90
2018-02-17T12:09:04.392Z,19.80
2018-02-17T12:19:23.989Z,25.33
2018-02-17T12:24:27.886Z,25.17
2018-02-17T12:29:38.781Z,35.87
2018-02-17T12:34:46.698Z,31.27
2018-02-17T12:45:10.268Z,32.00
2018-02-17T12:50:18.435Z,29.50
2018-02-17T13:00:47.229Z,25.50
2018-02-17T13:05:56.546Z,36.10
2018-02-17T13:11:07.711Z,35.17
2018-02-17T13:16:49.800Z,34.40
2018-02-17T13:27:12.137Z,39.80
2018-02-17T13:43:42.780Z,29.57
2018-02-17T13:49:01.546Z,31.73
2018-02-17T13:54:07.697Z,27.10
2018-02-17T13:59:18.665Z,34.60
2018-02-17T14:10:10.826Z,33.73
2018-02-17T14:35:59.024Z,30.30
2018-02-17T14:41:32.569Z,30.20
2018-02-17T14:47:54.043Z,30.40
2018-02-17T14:53:06.842Z,27.47
2018-02-17T14:58:25.010Z,24.10
2018-02-17T15:10:00.818Z,38.47
2018-02-17T15:15:13.158Z,23.00
2018-02-17T15:30:57.701Z,27.53
2018-02-17T15:36:02.672Z,29.90
2018-02-17T15:41:14.590Z,30.23
2018-02-17T15:46:22.499Z,36.60
2018-02-17T15:51:29.114Z,39.80
2018-02-17T15:56:34.191Z,26.20
2018-02-17T16:01:39.121Z,23.43
2018-02-17T16:06:45.190Z,17.80
2018-02-17T16:11:49.641Z,22.67
2018-02-17T16:16:57.170Z,24.93
2018-02-17T16:22:01.030Z,19.43
2018-02-17T16:27:06.180Z,15.50
2018-02-17T16:32:09.922Z,21.13
2018-02-17T16:37:12.919Z,20.20
2018-02-17T16:42:17.983Z,17.23
2018-02-17T16:47:22.366Z,15.90
2018-02-17T16:52:25.628Z,15.70
2018-02-17T16:57:29.751Z,12.43
2018-02-17T17:02:33.099Z,19.73
2018-02-17T17:07:36.668Z,17.37
2018-02-17T17:12:39.681Z,18.73
2018-02-17T17:17:44.941Z,22.17
2018-02-17T17:22:48.345Z,16.90
2018-02-17T17:27:51.493Z,14.90
2018-02-17T17:32:54.357Z,25.27
2018-02-17T17:37:57.163Z,25.30
2018-02-17T17:43:01.460Z,26.57
2018-02-17T17:48:05.242Z,24.47
2018-02-17T17:53:10.093Z,26.53
2018-02-17T17:58:14.116Z,27.23
2018-02-17T18:03:17.350Z,25.83
2018-02-17T18:08:23.604Z,37.53
2018-02-17T18:13:27.192Z,32.73
2018-02-17T18:18:32.346Z,33.83
2018-02-17T18:23:36.183Z,34.00
2018-02-17T18:28:39.217Z,33.17
2018-02-17T18:33:43.020Z,30.90
2018-02-17T18:38:46.860Z,44.80
2018-02-17T18:43:51.200Z,40.37
2018-02-17T18:48:56.921Z,45.23
2018-02-17T18:53:59.994Z,52.97
2018-02-17T18:59:04.934Z,53.73
2018-02-17T19:04:17.948Z,39.67
2018-02-17T19:09:20.977Z,44.03
2018-02-17T19:14:28.116Z,43.57
2018-02-17T19:19:35.218Z,45.23
2018-02-17T19:24:44.376Z,49.90
2018-02-17T19:29:49.343Z,51.53
2018-02-17T19:34:52.487Z,52.67
2018-02-17T19:39:55.166Z,47.73
2018-02-17T19:44:58.727Z,49.07
2018-02-17T19:50:02.169Z,47.83
2018-02-17T19:55:04.889Z,42.30
2018-02-17T20:00:07.661Z,50.00
2018-02-17T20:05:11.091Z,44.20
2018-02-17T20:10:13.830Z,57.87
2018-02-17T20:15:16.669Z,51.30
2018-02-17T20:20:19.337Z,54.63
2018-02-17T20:25:22.010Z,47.30
2018-02-17T20:30:24.700Z,55.10
2018-02-17T20:35:27.385Z,49.43
2018-02-17T20:40:31.029Z,54.83
2018-02-17T20:45:33.801Z,47.43
2018-02-17T20:50:37.399Z,65.17
2018-02-17T20:55:40.116Z,55.47
2018-02-17T21:00:43.661Z,61.60
2018-02-17T21:05:47.190Z,50.40
2018-02-17T21:10:50.053Z,43.70
2018-02-17T21:15:54.212Z,72.40
2018-02-17T21:20:56.903Z,47.13
2018-02-17T21:25:59.612Z,61.50
2018-02-17T21:31:02.290Z,74.53
2018-02-17T21:36:05.581Z,70.97
2018-02-17T21:41:08.516Z,56.50
2018-02-17T21:46:11.917Z,49.87
2018-02-17T21:51:14.616Z,64.57
2018-02-17T21:56:17.520Z,57.93
2018-02-17T22:01:21.166Z,56.83
2018-02-17T22:06:24.862Z,49.63
2018-02-17T22:11:28.337Z,67.93
2018-02-17T22:16:31.017Z,69.80
2018-02-17T22:21:34.555Z,63.43
2018-02-17T22:26:37.399Z,66.13
2018-02-17T22:31:40.888Z,56.47
2018-02-17T22:36:43.582Z,59.80
2018-02-17T22:41:47.281Z,76.53
2018-02-17T22:46:50.770Z,69.07
2018-02-17T22:51:54.390Z,59.60
2018-02-17T22:56:57.102Z,64.90
2018-02-17T23:02:01.014Z,68.67
2018-02-17T23:07:04.575Z,64.43
2018-02-17T23:12:07.457Z,63.37
2018-02-17T23:17:10.262Z,69.50
2018-02-17T23:22:13.917Z,68.53
2018-02-17T23:27:16.620Z,61.10
2018-02-17T23:32:19.398Z,55.00
2018-02-17T23:37:22.177Z,57.53
2018-02-17T23:42:25.183Z,68.37
2018-02-17T23:47:28.636Z,61.50
2018-02-17T23:52:31.702Z,70.37
2018-02-17T23:57:35.097Z,66.07
